Terminal Aerodrome Forecast
Issued by NWS

Home | Current Version | Previous Version | Text Only | Print | Product List | Glossary On
Versions: 1 2 3 4 5 6 7 8 9 10 11 12 13 14
595
FTUS46 KMTR 032345
TAFSJC
TAF
KSJC 032345Z 0400/0424 30012KT P6SM FEW018 BKN100
     FM040700 28004KT P6SM SCT015 BKN080
     FM041000 VRB03KT P6SM SCT012 BKN080
     FM041700 32012KT P6SM SCT016 BKN060
     FM042200 30008KT P6SM SCT012 BKN040=

USA.gov is the U.S. government's official web portal to all federal, state and local government web resources and services.